createdAt,value
2019-06-27T00:05:09.020Z,25.00
2019-06-27T00:11:05.523Z,25.53
2019-06-27T00:16:16.737Z,25.47
2019-06-27T00:22:00.577Z,24.95
2019-06-27T00:27:57.584Z,24.83
2019-06-27T00:39:18.341Z,25.31
2019-06-27T00:45:04.133Z,25.00
2019-06-27T00:50:50.223Z,24.79
2019-06-27T00:56:04.548Z,24.96
2019-06-27T01:01:00.582Z,24.59
2019-06-27T01:06:13.205Z,24.76
2019-06-27T01:11:57.461Z,24.81
2019-06-27T01:17:18.735Z,24.85
2019-06-27T01:28:48.809Z,24.39
2019-06-27T01:33:43.481Z,24.27
2019-06-27T01:39:37.300Z,24.02
2019-06-27T01:44:38.504Z,24.28
2019-06-27T01:50:32.280Z,24.60
2019-06-27T02:02:47.971Z,23.71
2019-06-27T02:08:13.297Z,23.99
2019-06-27T02:13:42.543Z,24.04
2019-06-27T02:19:38.009Z,23.86
2019-06-27T02:25:11.294Z,23.86
2019-06-27T02:32:03.247Z,24.05
2019-06-27T02:37:21.175Z,24.05
2019-06-27T02:43:34.131Z,23.90
2019-06-27T02:48:49.131Z,23.88
2019-06-27T02:53:40.673Z,23.70
2019-06-27T02:58:59.480Z,23.51
2019-06-27T03:03:54.219Z,23.50
2019-06-27T03:08:50.221Z,23.61
2019-06-27T03:13:46.170Z,23.55
2019-06-27T03:18:42.326Z,23.00
2019-06-27T03:23:38.415Z,23.29
2019-06-27T03:28:51.048Z,23.51
2019-06-27T03:34:55.919Z,23.43
2019-06-27T03:45:23.338Z,23.40
2019-06-27T03:50:39.655Z,22.95
2019-06-27T03:55:47.182Z,23.08
2019-06-27T04:00:42.775Z,22.98
2019-06-27T04:06:08.005Z,23.03
2019-06-27T04:11:08.655Z,22.90
2019-06-27T04:16:32.301Z,23.05
2019-06-27T04:21:50.908Z,23.36
2019-06-27T04:26:54.515Z,23.39
2019-06-27T04:31:51.923Z,23.22
2019-06-27T04:37:07.932Z,23.07
2019-06-27T04:42:06.976Z,23.29
2019-06-27T04:47:14.437Z,23.50
2019-06-27T04:52:13.642Z,23.52
2019-06-27T04:57:23.102Z,23.88
2019-06-27T05:02:30.590Z,24.18
2019-06-27T05:08:20.314Z,24.43
2019-06-27T05:27:11.258Z,25.16
2019-06-27T05:58:04.411Z,25.27
2019-06-27T06:39:39.888Z,25.54
2019-06-27T06:44:35.679Z,25.64
2019-06-27T06:49:31.393Z,25.78
2019-06-27T06:54:27.134Z,25.94
2019-06-27T06:59:23.069Z,26.15
2019-06-27T07:04:18.895Z,26.23
2019-06-27T07:09:14.631Z,26.19
2019-06-27T07:14:10.462Z,26.20
2019-06-27T07:19:06.279Z,26.64
2019-06-27T07:24:02.017Z,27.12
2019-06-27T07:28:57.925Z,27.71
2019-06-27T07:33:53.706Z,28.07
2019-06-27T07:40:01.285Z,28.19
2019-06-27T07:45:59.729Z,28.05
2019-06-27T07:57:03.144Z,28.40
2019-06-27T08:03:01.670Z,28.52
2019-06-27T08:15:01.600Z,29.17
2019-06-27T08:20:59.735Z,29.38
2019-06-27T08:27:01.100Z,29.86
2019-06-27T08:33:00.345Z,29.88
2019-06-27T08:45:03.362Z,30.75
2019-06-27T09:14:59.415Z,31.42
2019-06-27T09:26:02.767Z,32.03
2019-06-27T09:36:53.661Z,32.09
2019-06-27T09:41:49.400Z,32.33
2019-06-27T09:46:45.298Z,32.49
2019-06-27T09:51:43.401Z,32.45
2019-06-27T09:56:39.192Z,32.76
2019-06-27T10:01:34.995Z,32.66
2019-06-27T10:06:31.952Z,32.80
2019-06-27T10:11:27.639Z,32.76
2019-06-27T10:16:23.432Z,32.92
2019-06-27T10:21:19.266Z,33.31
2019-06-27T10:26:15.035Z,33.46
2019-06-27T10:31:10.837Z,33.45
2019-06-27T10:36:06.657Z,33.61
2019-06-27T10:41:02.558Z,33.72
2019-06-27T10:45:58.314Z,33.99
2019-06-27T10:50:54.863Z,34.05
2019-06-27T10:55:50.777Z,33.99
2019-06-27T11:00:46.619Z,34.04
2019-06-27T11:06:14.779Z,33.94
2019-06-27T11:24:31.954Z,34.25
2019-06-27T11:29:43.945Z,34.28
2019-06-27T11:34:59.742Z,34.23
2019-06-27T11:40:06.122Z,34.24
2019-06-27T11:45:05.120Z,34.55
2019-06-27T12:17:16.241Z,34.55
2019-06-27T13:00:01.259Z,34.57
2019-06-27T13:12:02.217Z,34.42
2019-06-27T13:17:10.336Z,34.41
2019-06-27T13:47:04.668Z,34.06
2019-06-27T13:58:03.665Z,33.70
2019-06-27T14:04:19.462Z,33.70
2019-06-27T14:10:06.616Z,33.74
2019-06-27T14:15:59.467Z,33.86
2019-06-27T14:21:12.520Z,33.97
2019-06-27T14:26:17.226Z,33.99
2019-06-27T14:31:18.201Z,33.97
2019-06-27T14:36:21.430Z,34.06
2019-06-27T14:47:05.600Z,33.85
2019-06-27T14:52:57.535Z,34.01
2019-06-27T14:58:36.330Z,34.04
2019-06-27T15:04:06.302Z,34.12
2019-06-27T15:09:31.350Z,34.03
2019-06-27T15:14:45.859Z,34.08
2019-06-27T15:19:59.259Z,34.06
2019-06-27T15:25:21.835Z,33.99
2019-06-27T15:30:26.381Z,34.05
2019-06-27T15:36:39.809Z,34.09
2019-06-27T15:41:40.974Z,34.16
2019-06-27T15:46:45.942Z,34.07
2019-06-27T15:51:50.105Z,34.01
2019-06-27T15:56:53.298Z,33.96
2019-06-27T16:15:01.562Z,33.54
2019-06-27T19:01:45.559Z,31.36
2019-06-27T19:06:41.425Z,31.40
2019-06-27T19:11:39.708Z,31.39
2019-06-27T19:16:35.486Z,31.25
2019-06-27T19:21:50.186Z,31.02
2019-06-27T19:26:46.942Z,30.91
2019-06-27T19:31:42.778Z,30.82
2019-06-27T19:36:38.618Z,31.02
2019-06-27T19:41:34.492Z,30.76
2019-06-27T19:46:30.223Z,30.71
2019-06-27T19:51:26.103Z,30.63
2019-06-27T19:56:21.983Z,30.48
2019-06-27T20:01:17.711Z,30.66
2019-06-27T20:06:13.647Z,30.71
2019-06-27T20:11:09.427Z,30.96
2019-06-27T20:22:39.079Z,30.64
2019-06-27T20:33:40.732Z,30.58
2019-06-27T20:38:38.358Z,30.26
2019-06-27T20:43:49.389Z,30.17
2019-06-27T20:50:10.167Z,30.14
2019-06-27T20:55:29.826Z,30.11
2019-06-27T21:01:47.544Z,30.09
2019-06-27T21:20:25.219Z,29.89
2019-06-27T21:25:21.531Z,29.84
2019-06-27T21:30:18.093Z,29.67
2019-06-27T21:35:14.377Z,29.56
2019-06-27T21:40:11.619Z,29.44
2019-06-27T21:45:08.469Z,29.51
2019-06-27T21:50:04.784Z,29.32
2019-06-27T21:55:00.666Z,29.01
2019-06-27T22:00:01.779Z,28.84
2019-06-27T22:04:57.793Z,28.55
2019-06-27T22:09:53.721Z,28.45
2019-06-27T22:14:50.371Z,28.25
2019-06-27T22:19:47.117Z,28.27
2019-06-27T22:24:43.045Z,27.99
2019-06-27T22:29:38.815Z,28.07
2019-06-27T22:34:35.654Z,27.99
2019-06-27T22:39:49.745Z,28.24
2019-06-27T22:45:03.239Z,28.29
2019-06-27T22:49:59.698Z,27.92
2019-06-27T22:54:57.352Z,28.33
2019-06-27T22:59:53.069Z,28.38
2019-06-27T23:04:48.880Z,28.33
2019-06-27T23:09:56.410Z,28.25
2019-06-27T23:14:42.053Z,28.17
2019-06-27T23:19:37.859Z,28.14
2019-06-27T23:24:33.818Z,27.84
2019-06-27T23:34:31.170Z,27.88
2019-06-27T23:39:27.098Z,28.06
2019-06-27T23:44:22.936Z,28.33
2019-06-27T23:49:18.707Z,28.32
2019-06-27T23:54:14.571Z,28.05
2019-06-27T23:59:10.302Z,27.74
